Time;durP1;ratioP1;P1;durP2;ratioP2;P2;SDS_P1;SDS_P2;PMS_P1;PMS_P2;Temp;Humidity;BMP_temperature;BMP_pressure;BME280_temperature;BME280_humidity;BME280_pressure;Samples;Min_cycle;Max_cycle;Signal;HPM_P1;HPM_P2
2021/05/29 00:01:55;;;;;;;0.80;0.70;;;;;;;-148.58;100.00;55229.56;5003363;28;20018;-58
2021/05/29 00:04:20;;;;;;;1.08;0.70;;;;;;;-148.58;100.00;55229.56;5015558;28;20032;-57
2021/05/29 00:06:45;;;;;;;1.13;0.98;;;;;;;-148.58;100.00;55229.56;5014817;28;20025;-58
2021/05/29 00:09:11;;;;;;;1.13;0.88;;;;;;;-148.58;100.00;55229.56;5015189;28;20049;-57
2021/05/29 00:11:36;;;;;;;2.03;0.90;;;;;;;-148.58;100.00;55229.56;5014881;28;20491;-58
2021/05/29 00:14:02;;;;;;;1.30;0.65;;;;;;;-148.58;100.00;55229.56;5005615;28;20054;-58
2021/05/29 00:16:27;;;;;;;2.25;1.00;;;;;;;-148.58;100.00;55229.56;4995317;28;20049;-58
2021/05/29 00:18:53;;;;;;;2.15;0.90;;;;;;;-148.58;100.00;55229.56;4995203;28;20026;-58
2021/05/29 00:21:18;;;;;;;0.80;0.73;;;;;;;-148.58;100.00;55229.56;4995178;28;20085;-58
2021/05/29 00:23:44;;;;;;;0.60;0.60;;;;;;;-148.58;100.00;55229.56;4995105;28;20034;-58
2021/05/29 00:26:09;;;;;;;0.98;0.50;;;;;;;-148.58;100.00;55229.56;4995281;28;20489;-58
2021/05/29 00:28:35;;;;;;;1.48;0.73;;;;;;;-148.58;100.00;55229.56;4994889;28;20022;-58
2021/05/29 00:31:01;;;;;;;1.10;0.60;;;;;;;-148.58;100.00;55229.56;4993983;28;20029;-58
2021/05/29 00:33:26;;;;;;;1.33;0.65;;;;;;;-148.58;100.00;55229.56;4995031;28;20018;-58
2021/05/29 00:35:51;;;;;;;1.33;0.60;;;;;;;-148.58;100.00;55229.56;4994963;28;20037;-58
2021/05/29 00:38:17;;;;;;;0.75;0.75;;;;;;;-148.58;100.00;55229.56;4995049;28;20033;-58
2021/05/29 00:40:42;;;;;;;0.75;0.47;;;;;;;-148.58;100.00;55229.56;4994808;28;20043;-58
2021/05/29 00:43:07;;;;;;;3.30;0.73;;;;;;;-148.58;100.00;55229.56;4996189;28;20023;-58
2021/05/29 00:45:33;;;;;;;1.25;0.60;;;;;;;-148.58;100.00;55229.56;5014305;28;20033;-58
2021/05/29 00:48:00;;;;;;;0.70;0.70;;;;;;;-148.58;100.00;55229.56;5014413;28;20474;-58
2021/05/29 00:50:26;;;;;;;1.98;0.52;;;;;;;-148.58;100.00;55229.56;5014280;28;20105;-58
2021/05/29 00:52:51;;;;;;;1.10;0.60;;;;;;;-148.58;100.00;55229.56;5014369;28;20143;-58
2021/05/29 00:55:17;;;;;;;1.92;0.80;;;;;;;-148.58;100.00;55229.56;5014326;28;20021;-59
2021/05/29 00:57:48;;;;;;;0.98;0.57;;;;;;;-148.58;100.00;55229.56;5014114;28;20065;-58
2021/05/29 01:00:18;;;;;;;1.30;0.70;;;;;;;-148.58;100.00;55229.56;5014230;28;20381;-58
2021/05/29 01:02:43;;;;;;;1.48;0.57;;;;;;;-148.58;100.00;55229.56;5013843;28;20382;-58
2021/05/29 01:05:10;;;;;;;1.85;0.70;;;;;;;-148.58;100.00;55229.56;5014142;28;20040;-58
2021/05/29 01:07:36;;;;;;;3.17;0.80;;;;;;;-148.58;100.00;55229.56;5013849;28;20411;-58
2021/05/29 01:10:04;;;;;;;2.10;0.80;;;;;;;-148.58;100.00;55229.56;5014113;28;20532;-58
2021/05/29 01:12:30;;;;;;;0.80;0.50;;;;;;;-148.58;100.00;55229.56;5013824;28;20033;-58
2021/05/29 01:14:57;;;;;;;0.57;0.47;;;;;;;-148.58;100.00;55229.56;4997596;28;20034;-59
2021/05/29 01:17:24;;;;;;;2.17;0.57;;;;;;;-148.58;100.00;55229.56;5005366;28;20052;-58
2021/05/29 01:19:50;;;;;;;0.80;0.45;;;;;;;-148.58;100.00;55229.56;5013768;28;20025;-58
2021/05/29 01:22:34;;;;;;;2.03;0.60;;;;;;;-148.58;100.00;55229.56;5013624;28;20374;-58
2021/05/29 01:24:59;;;;;;;0.45;0.35;;;;;;;-148.58;100.00;55229.56;5013855;28;20026;-58
2021/05/29 01:27:25;;;;;;;0.90;0.50;;;;;;;-148.58;100.00;55229.56;5013697;28;20084;-58
2021/05/29 01:29:50;;;;;;;0.47;0.40;;;;;;;-148.58;100.00;55229.56;5013589;28;20072;-58
2021/05/29 01:32:19;;;;;;;1.60;0.65;;;;;;;-148.58;100.00;55229.56;5013723;28;20026;-58
2021/05/29 01:34:45;;;;;;;0.75;0.60;;;;;;;-148.58;100.00;55229.56;5028558;28;20029;-59
2021/05/29 01:37:10;;;;;;;1.42;0.77;;;;;;;-148.58;100.00;55229.56;5013695;28;20137;-57
2021/05/29 01:39:36;;;;;;;1.42;0.68;;;;;;;-148.58;100.00;55229.56;5013224;28;20053;-58
2021/05/29 01:42:01;;;;;;;1.95;0.52;;;;;;;-148.58;100.00;55229.56;5013436;28;20105;-58
2021/05/29 01:44:27;;;;;;;1.10;0.60;;;;;;;-148.58;100.00;55229.56;5001359;28;20433;-58
2021/05/29 01:46:52;;;;;;;0.93;0.43;;;;;;;-148.58;100.00;55229.56;4993605;28;20058;-58
2021/05/29 01:49:19;;;;;;;1.08;0.50;;;;;;;-148.58;100.00;55229.56;4993829;28;20113;-57
2021/05/29 01:51:44;;;;;;;1.17;0.60;;;;;;;-148.58;100.00;55229.56;4993136;28;20022;-59
2021/05/29 01:54:14;;;;;;;0.70;0.40;;;;;;;-148.58;100.00;55229.56;4992447;28;20466;-58
2021/05/29 01:56:39;;;;;;;2.63;0.85;;;;;;;-148.58;100.00;55229.56;4993416;28;20026;-58
2021/05/29 01:59:04;;;;;;;1.00;0.60;;;;;;;-148.58;100.00;55229.56;4993564;28;20077;-58
2021/05/29 02:01:30;;;;;;;1.73;0.50;;;;;;;-148.58;100.00;55229.56;4993292;28;20053;-58
2021/05/29 02:03:55;;;;;;;1.83;0.55;;;;;;;-148.58;100.00;55229.56;4993454;28;20019;-58
2021/05/29 02:06:20;;;;;;;1.00;0.40;;;;;;;-148.58;100.00;55229.56;4994610;28;20064;-58
2021/05/29 02:08:45;;;;;;;1.52;0.60;;;;;;;-148.58;100.00;55229.56;4993391;28;20489;-58
2021/05/29 02:11:11;;;;;;;0.47;0.45;;;;;;;-148.58;100.00;55229.56;4993525;28;20024;-58
2021/05/29 02:13:38;;;;;;;1.88;0.63;;;;;;;-148.58;100.00;55229.56;4993182;28;20508;-58
2021/05/29 02:16:05;;;;;;;1.65;0.63;;;;;;;-148.58;100.00;55229.56;4993365;28;20030;-58
2021/05/29 02:18:31;;;;;;;1.23;0.60;;;;;;;-148.58;100.00;55229.56;4993219;28;20033;-58
2021/05/29 02:21:03;;;;;;;2.47;0.55;;;;;;;-148.58;100.00;55229.56;4993507;28;20054;-58
2021/05/29 02:23:43;;;;;;;0.95;0.43;;;;;;;-148.58;100.00;55229.56;4993198;28;20038;-58
2021/05/29 02:26:12;;;;;;;0.40;0.40;;;;;;;-148.58;100.00;55229.56;4993214;28;20033;-59
2021/05/29 02:28:40;;;;;;;0.85;0.50;;;;;;;-148.58;100.00;55229.56;4993023;28;20397;-58
2021/05/29 02:31:06;;;;;;;1.00;0.35;;;;;;;-148.58;100.00;55229.56;4993200;28;20099;-58
2021/05/29 02:33:33;;;;;;;0.45;0.30;;;;;;;-148.58;100.00;55229.56;4993401;28;20022;-58
2021/05/29 02:35:58;;;;;;;0.73;0.43;;;;;;;-148.58;100.00;55229.56;4993157;28;20104;-58
2021/05/29 02:38:25;;;;;;;0.50;0.40;;;;;;;-148.58;100.00;55229.56;5010232;28;20069;-58
2021/05/29 02:40:50;;;;;;;1.52;0.57;;;;;;;-148.58;100.00;55229.56;5012185;28;20034;-59
2021/05/29 02:43:16;;;;;;;1.40;0.60;;;;;;;-148.58;100.00;55229.56;5012737;28;20041;-58
2021/05/29 02:45:41;;;;;;;1.10;0.40;;;;;;;-148.58;100.00;55229.56;5012586;28;20084;-58
2021/05/29 02:48:08;;;;;;;1.58;0.50;;;;;;;-148.58;100.00;55229.56;5012692;28;20108;-58
2021/05/29 02:50:34;;;;;;;0.40;0.40;;;;;;;-148.58;100.00;55229.56;5012505;28;20022;-58
2021/05/29 02:52:59;;;;;;;1.02;0.45;;;;;;;-148.58;100.00;55229.56;5012630;28;20060;-58
2021/05/29 02:55:24;;;;;;;1.38;0.50;;;;;;;-148.58;100.00;55229.56;5012607;28;20441;-58
2021/05/29 02:57:52;;;;;;;2.20;0.43;;;;;;;-148.58;100.00;55229.56;5012427;28;20036;-58
2021/05/29 03:00:19;;;;;;;4.13;0.80;;;;;;;-148.58;100.00;55229.56;5012928;28;20405;-58
2021/05/29 03:02:44;;;;;;;1.33;0.52;;;;;;;-148.58;100.00;55229.56;5012147;28;20554;-58
2021/05/29 03:05:10;;;;;;;1.45;0.60;;;;;;;-148.58;100.00;55229.56;5015270;28;20109;-58
2021/05/29 03:07:36;;;;;;;0.55;0.30;;;;;;;-148.58;100.00;55229.56;5015420;28;20026;-58
2021/05/29 03:10:04;;;;;;;0.60;0.30;;;;;;;-148.58;100.00;55229.56;5016361;28;20048;-58
2021/05/29 03:12:29;;;;;;;0.95;0.40;;;;;;;-148.58;100.00;55229.56;5014836;28;20113;-58
2021/05/29 03:14:54;;;;;;;0.80;0.43;;;;;;;-148.58;100.00;55229.56;5015997;28;20108;-58
2021/05/29 03:17:19;;;;;;;0.88;0.28;;;;;;;-148.58;100.00;55229.56;5016195;28;20358;-58
2021/05/29 03:19:45;;;;;;;1.15;0.38;;;;;;;-148.58;100.00;55229.56;5015971;28;20022;-58
2021/05/29 03:22:10;;;;;;;0.80;0.57;;;;;;;-148.58;100.00;55229.56;5015817;28;20045;-57
2021/05/29 03:24:35;;;;;;;1.25;0.57;;;;;;;-148.58;100.00;55229.56;5015730;28;20040;-58
2021/05/29 03:27:01;;;;;;;1.17;0.50;;;;;;;-148.58;100.00;55229.56;5016221;28;20149;-57
2021/05/29 03:29:26;;;;;;;0.63;0.60;;;;;;;-148.58;100.00;55229.56;5015870;28;20481;-58
2021/05/29 03:31:51;;;;;;;1.08;0.73;;;;;;;-148.58;100.00;55229.56;5015753;28;20022;-59
2021/05/29 03:34:17;;;;;;;1.13;0.50;;;;;;;-148.58;100.00;55229.56;5015860;28;20087;-58
2021/05/29 03:36:42;;;;;;;1.20;0.57;;;;;;;-148.58;100.00;55229.56;5009162;28;20440;-58
2021/05/29 03:39:07;;;;;;;1.48;0.50;;;;;;;-148.58;100.00;55229.56;5005751;28;20036;-58
2021/05/29 03:41:33;;;;;;;1.55;0.30;;;;;;;-148.58;100.00;55229.56;5015297;28;20046;-58
2021/05/29 03:44:00;;;;;;;0.65;0.47;;;;;;;-148.58;100.00;55229.56;5015622;28;20032;-58
2021/05/29 03:46:25;;;;;;;0.63;0.40;;;;;;;-148.58;100.00;55229.56;5015600;28;20029;-57
2021/05/29 03:48:51;;;;;;;0.75;0.50;;;;;;;-148.58;100.00;55229.56;5015373;28;20422;-58
2021/05/29 03:51:16;;;;;;;0.60;0.55;;;;;;;-148.58;100.00;55229.56;5015562;28;20552;-58
2021/05/29 03:53:41;;;;;;;0.60;0.40;;;;;;;-148.58;100.00;55229.56;5015353;28;20022;-58
2021/05/29 03:56:07;;;;;;;1.83;0.50;;;;;;;-148.58;100.00;55229.56;5015351;28;20026;-58
2021/05/29 03:58:32;;;;;;;0.95;0.50;;;;;;;-148.58;100.00;55229.56;5015504;28;20247;-58
2021/05/29 04:00:58;;;;;;;1.42;0.45;;;;;;;-148.58;100.00;55229.56;5015156;28;20417;-58
2021/05/29 04:03:24;;;;;;;1.42;0.65;;;;;;;-148.58;100.00;55229.56;5015418;28;20022;-58
2021/05/29 04:05:49;;;;;;;1.58;0.60;;;;;;;-148.58;100.00;55229.56;5014392;28;20129;-58
2021/05/29 04:08:14;;;;;;;0.65;0.38;;;;;;;-148.58;100.00;55229.56;5015243;28;20036;-58
2021/05/29 04:10:40;;;;;;;0.30;0.30;;;;;;;-148.58;100.00;55229.56;5015205;28;20469;-58
2021/05/29 04:13:05;;;;;;;0.45;0.40;;;;;;;-148.58;100.00;55229.56;5015204;28;20501;-58
2021/05/29 04:15:30;;;;;;;2.10;1.05;;;;;;;-148.58;100.00;55229.56;5014502;28;20022;-58
2021/05/29 04:17:56;;;;;;;0.77;0.50;;;;;;;-148.58;100.00;55229.56;5014974;28;20021;-58
2021/05/29 04:20:25;;;;;;;1.70;0.45;;;;;;;-148.58;100.00;55229.56;5014029;28;20134;-58
2021/05/29 04:22:51;;;;;;;1.00;0.40;;;;;;;-148.58;100.00;55229.56;5014395;28;20091;-58
2021/05/29 04:25:19;;;;;;;0.55;0.35;;;;;;;-148.58;100.00;55229.56;5015133;28;20026;-58
2021/05/29 04:27:45;;;;;;;0.63;0.35;;;;;;;-148.58;100.00;55229.56;5029781;28;20053;-59
2021/05/29 04:30:13;;;;;;;1.05;0.52;;;;;;;-148.58;100.00;55229.56;5014860;28;20470;-59
2021/05/29 04:32:38;;;;;;;1.55;0.43;;;;;;;-148.58;100.00;55229.56;5014438;28;20470;-58
2021/05/29 04:35:05;;;;;;;0.95;0.50;;;;;;;-148.58;100.00;55229.56;5014631;28;20081;-58
2021/05/29 04:37:30;;;;;;;0.45;0.45;;;;;;;-148.58;100.00;55229.56;5011028;28;20037;-58
2021/05/29 04:39:56;;;;;;;0.90;0.38;;;;;;;-148.58;100.00;55229.56;5013796;28;20026;-58
2021/05/29 04:42:21;;;;;;;0.98;0.45;;;;;;;-148.58;100.00;55229.56;5014492;28;20493;-58
2021/05/29 04:44:47;;;;;;;1.55;0.52;;;;;;;-148.58;100.00;55229.56;5014138;28;20073;-58
2021/05/29 04:47:12;;;;;;;1.10;0.60;;;;;;;-148.58;100.00;55229.56;5014502;28;20033;-58
2021/05/29 04:49:37;;;;;;;0.32;0.30;;;;;;;-148.58;100.00;55229.56;5014141;28;20022;-58
2021/05/29 04:52:03;;;;;;;0.82;0.50;;;;;;;-148.58;100.00;55229.56;5014374;28;20104;-58
2021/05/29 04:54:29;;;;;;;0.50;0.50;;;;;;;-148.58;100.00;55229.56;5014164;28;20113;-58
2021/05/29 04:56:54;;;;;;;2.35;0.70;;;;;;;-148.58;100.00;55229.56;5014114;28;20481;-58
2021/05/29 04:59:20;;;;;;;0.80;0.43;;;;;;;-148.58;100.00;55229.56;5029562;28;20377;-58
2021/05/29 05:01:45;;;;;;;0.57;0.35;;;;;;;-148.58;100.00;55229.56;5013795;28;20026;-58
2021/05/29 05:04:10;;;;;;;1.10;0.45;;;;;;;-148.58;100.00;55229.56;5014228;28;20022;-58
2021/05/29 05:06:36;;;;;;;1.55;0.50;;;;;;;-148.58;100.00;55229.56;5004083;28;20034;-58
2021/05/29 05:09:03;;;;;;;0.90;0.50;;;;;;;-148.58;100.00;55229.56;4994617;28;20018;-58
2021/05/29 05:11:28;;;;;;;0.77;0.40;;;;;;;-148.58;100.00;55229.56;4994354;28;20053;-58
2021/05/29 05:13:54;;;;;;;4.47;0.68;;;;;;;-148.58;100.00;55229.56;4994307;28;20081;-59
2021/05/29 05:16:19;;;;;;;0.98;0.30;;;;;;;-148.58;100.00;55229.56;4994349;28;20045;-58
2021/05/29 05:18:45;;;;;;;0.90;0.50;;;;;;;-148.58;100.00;55229.56;4993916;28;20027;-59
2021/05/29 05:21:11;;;;;;;1.27;0.30;;;;;;;-148.58;100.00;55229.56;4994177;28;20117;-58
2021/05/29 05:23:37;;;;;;;1.75;0.60;;;;;;;-148.58;100.00;55229.56;4993929;28;20030;-58
2021/05/29 05:26:03;;;;;;;0.40;0.40;;;;;;;-148.58;100.00;55229.56;4992593;28;20029;-58
2021/05/29 05:28:29;;;;;;;0.52;0.35;;;;;;;-148.58;100.00;55229.56;4993593;28;20030;-58
2021/05/29 05:31:00;;;;;;;1.58;0.60;;;;;;;-148.58;100.00;55229.56;4993958;28;20040;-58
2021/05/29 05:33:26;;;;;;;0.65;0.50;;;;;;;-148.58;100.00;55229.56;4997268;28;20213;-58
2021/05/29 05:35:52;;;;;;;0.68;0.45;;;;;;;-148.58;100.00;55229.56;5012772;28;20116;-57
2021/05/29 05:38:20;;;;;;;1.10;0.60;;;;;;;-148.58;100.00;55229.56;5013608;28;20029;-58
2021/05/29 05:40:45;;;;;;;1.00;0.45;;;;;;;-148.58;100.00;55229.56;5013208;28;20032;-58
2021/05/29 05:43:11;;;;;;;1.42;0.60;;;;;;;-148.58;100.00;55229.56;5013480;28;20034;-58
2021/05/29 05:45:37;;;;;;;0.47;0.35;;;;;;;-148.58;100.00;55229.56;5013789;28;20032;-57
2021/05/29 05:48:02;;;;;;;0.47;0.30;;;;;;;-148.58;100.00;55229.56;5013448;28;20049;-58
2021/05/29 05:50:28;;;;;;;0.85;0.30;;;;;;;-148.58;100.00;55229.56;5013211;28;20060;-58
2021/05/29 05:52:53;;;;;;;1.58;0.40;;;;;;;-148.58;100.00;55229.56;5013180;28;20038;-58
2021/05/29 05:55:19;;;;;;;0.50;0.45;;;;;;;-148.58;100.00;55229.56;5013397;28;20036;-58
2021/05/29 05:57:44;;;;;;;0.47;0.43;;;;;;;-148.58;100.00;55229.56;5003105;28;20037;-58
2021/05/29 06:00:13;;;;;;;1.60;0.55;;;;;;;-148.58;100.00;55229.56;4998169;28;20080;-58
2021/05/29 06:02:39;;;;;;;1.33;0.32;;;;;;;-148.58;100.00;55229.56;5012846;28;20428;-58
2021/05/29 06:05:05;;;;;;;0.52;0.30;;;;;;;-148.58;100.00;55229.56;5013500;28;20476;-58
2021/05/29 06:07:30;;;;;;;0.40;0.40;;;;;;;-148.58;100.00;55229.56;5012972;28;20029;-58
2021/05/29 06:09:55;;;;;;;0.47;0.32;;;;;;;-148.58;100.00;55229.56;5013016;28;20358;-57
2021/05/29 06:12:21;;;;;;;0.55;0.45;;;;;;;-148.58;100.00;55229.56;5013115;28;20026;-57
2021/05/29 06:20:15;;;;;;;0.95;0.32;;;;;;;-148.58;100.00;55229.56;5013009;28;20516;-57
2021/05/29 06:22:41;;;;;;;0.38;0.38;;;;;;;-148.58;100.00;55229.56;5012564;28;20046;-57
2021/05/29 06:25:08;;;;;;;0.80;0.50;;;;;;;-148.58;100.00;55229.56;5012904;28;20516;-58
2021/05/29 06:27:34;;;;;;;0.50;0.40;;;;;;;-148.58;100.00;55229.56;5011212;28;20374;-57
2021/05/29 06:29:59;;;;;;;0.60;0.30;;;;;;;-148.58;100.00;55229.56;5012863;28;20030;-57
2021/05/29 06:32:25;;;;;;;3.50;0.80;;;;;;;-148.58;100.00;55229.56;5012843;28;20018;-57
2021/05/29 06:34:50;;;;;;;2.05;0.82;;;;;;;-148.58;100.00;55229.56;5012642;28;20065;-58
2021/05/29 06:37:16;;;;;;;1.23;0.55;;;;;;;-148.58;100.00;55229.56;5012818;28;20533;-57
2021/05/29 06:39:44;;;;;;;1.02;0.57;;;;;;;-148.58;100.00;55229.56;5016339;28;20018;-58
2021/05/29 06:42:10;;;;;;;0.52;0.30;;;;;;;-148.58;100.00;55229.56;5016782;28;20026;-57
2021/05/29 06:44:35;;;;;;;0.75;0.35;;;;;;;-148.58;100.00;55229.56;5016846;28;20032;-57
2021/05/29 06:47:00;;;;;;;0.82;0.40;;;;;;;-148.58;100.00;55229.56;5016833;28;20028;-58
2021/05/29 06:49:25;;;;;;;0.70;0.45;;;;;;;-148.58;100.00;55229.56;5016695;28;20022;-57
2021/05/29 06:51:58;;;;;;;1.20;0.50;;;;;;;-148.58;100.00;55229.56;5016299;28;20045;-57
2021/05/29 06:54:53;;;;;;;1.95;0.55;;;;;;;-148.58;100.00;55229.56;5016608;28;20042;-57
2021/05/29 07:00:06;;;;;;;2.17;0.60;;;;;;;-148.58;100.00;55229.56;5005911;28;20041;-58
2021/05/29 07:02:31;;;;;;;1.70;0.47;;;;;;;-148.58;100.00;55229.56;4996618;28;20034;-57
2021/05/29 07:04:57;;;;;;;1.33;0.60;;;;;;;-148.58;100.00;55229.56;4996724;28;20505;-58
2021/05/29 07:07:22;;;;;;;1.35;0.43;;;;;;;-148.58;100.00;55229.56;4996878;28;20036;-57
2021/05/29 07:09:47;;;;;;;1.23;0.52;;;;;;;-148.58;100.00;55229.56;4996564;28;20026;-58
2021/05/29 07:12:13;;;;;;;0.73;0.40;;;;;;;-148.58;100.00;55229.56;4996764;28;20022;-57
2021/05/29 07:14:38;;;;;;;3.30;0.80;;;;;;;-148.58;100.00;55229.56;4996351;28;20470;-57
2021/05/29 07:17:05;;;;;;;0.68;0.40;;;;;;;-148.58;100.00;55229.56;4996620;28;20101;-57
2021/05/29 07:19:30;;;;;;;1.23;0.65;;;;;;;-148.58;100.00;55229.56;4995203;28;20018;-57
2021/05/29 07:21:55;;;;;;;1.20;0.45;;;;;;;-148.58;100.00;55229.56;4996279;28;20375;-57
2021/05/29 07:24:21;;;;;;;1.25;0.47;;;;;;;-148.58;100.00;55229.56;4996431;28;20477;-57
2021/05/29 07:26:48;;;;;;;0.88;0.40;;;;;;;-148.58;100.00;55229.56;4999429;28;20040;-57
2021/05/29 07:29:13;;;;;;;1.58;0.82;;;;;;;-148.58;100.00;55229.56;5016306;28;20237;-57
2021/05/29 07:31:39;;;;;;;2.92;0.73;;;;;;;-148.58;100.00;55229.56;5007176;28;20033;-57
2021/05/29 07:34:04;;;;;;;1.52;0.50;;;;;;;-148.58;100.00;55229.56;4996304;28;20062;-57
2021/05/29 07:36:30;;;;;;;1.42;0.60;;;;;;;-148.58;100.00;55229.56;4996202;28;20030;-58
2021/05/29 07:38:55;;;;;;;1.00;0.38;;;;;;;-148.58;100.00;55229.56;4996290;28;20386;-57
2021/05/29 07:41:21;;;;;;;1.77;0.73;;;;;;;-148.58;100.00;55229.56;4994963;28;20027;-57
2021/05/29 07:43:46;;;;;;;0.93;0.60;;;;;;;-148.58;100.00;55229.56;4995879;28;20470;-58
2021/05/29 07:46:12;;;;;;;0.73;0.43;;;;;;;-148.58;100.00;55229.56;4996144;28;20061;-57
2021/05/29 07:48:38;;;;;;;2.10;0.60;;;;;;;-148.58;100.00;55229.56;4995819;28;20022;-57
2021/05/29 07:51:04;;;;;;;2.22;1.13;;;;;;;-148.58;100.00;55229.56;4995256;28;20080;-57
2021/05/29 07:53:34;;;;;;;1.27;0.45;;;;;;;-148.58;100.00;55229.56;4995813;28;20054;-57
2021/05/29 07:56:02;;;;;;;1.40;0.60;;;;;;;-148.58;100.00;55229.56;4996123;28;20022;-58
2021/05/29 07:58:27;;;;;;;1.65;0.50;;;;;;;-148.58;100.00;55229.56;5014947;28;20377;-57
2021/05/29 08:00:54;;;;;;;1.77;0.50;;;;;;;-148.58;100.00;55229.56;5015413;28;20029;-57
2021/05/29 08:03:22;;;;;;;1.60;0.43;;;;;;;-148.58;100.00;55229.56;5015002;28;20070;-58
2021/05/29 08:05:50;;;;;;;0.60;0.30;;;;;;;-148.58;100.00;55229.56;5015136;28;20030;-58
2021/05/29 08:08:16;;;;;;;1.23;0.50;;;;;;;-148.58;100.00;55229.56;5015235;28;20390;-57
2021/05/29 08:10:41;;;;;;;3.95;1.00;;;;;;;-148.58;100.00;55229.56;5014802;28;20036;-58
2021/05/29 08:13:07;;;;;;;0.50;0.40;;;;;;;-148.58;100.00;55229.56;5014609;28;20045;-57
2021/05/29 08:15:32;;;;;;;0.93;0.40;;;;;;;-148.58;100.00;55229.56;4996865;28;20031;-57
2021/05/29 08:17:57;;;;;;;1.48;0.40;;;;;;;-148.58;100.00;55229.56;5014031;28;20061;-57
2021/05/29 08:20:23;;;;;;;1.52;0.50;;;;;;;-148.58;100.00;55229.56;5015043;28;20026;-57
2021/05/29 08:22:48;;;;;;;0.95;0.40;;;;;;;-148.58;100.00;55229.56;5014500;28;20033;-58
2021/05/29 08:25:14;;;;;;;2.55;0.57;;;;;;;-148.58;100.00;55229.56;5014922;28;20377;-57
2021/05/29 08:27:39;;;;;;;1.75;0.50;;;;;;;-148.58;100.00;55229.56;5014712;28;20032;-57
2021/05/29 08:30:05;;;;;;;1.27;0.45;;;;;;;-148.58;100.00;55229.56;5013044;28;20401;-57
2021/05/29 08:32:31;;;;;;;0.40;0.40;;;;;;;-148.58;100.00;55229.56;5014697;28;20022;-58
2021/05/29 08:34:56;;;;;;;2.70;0.52;;;;;;;-148.58;100.00;55229.56;5014564;28;20032;-58
2021/05/29 08:37:21;;;;;;;1.00;0.43;;;;;;;-148.58;100.00;55229.56;5014733;28;20053;-57
2021/05/29 08:39:47;;;;;;;1.55;0.82;;;;;;;-148.58;100.00;55229.56;5014330;28;20029;-58
2021/05/29 08:42:12;;;;;;;1.15;0.50;;;;;;;-148.58;100.00;55229.56;5014555;28;20026;-57
2021/05/29 08:44:38;;;;;;;2.08;0.60;;;;;;;-148.58;100.00;55229.56;5014268;28;20030;-57
2021/05/29 08:47:03;;;;;;;2.13;0.60;;;;;;;-148.58;100.00;55229.56;5014556;28;20108;-57
2021/05/29 08:49:29;;;;;;;1.25;0.50;;;;;;;-148.58;100.00;55229.56;5014375;28;20588;-57
2021/05/29 08:51:57;;;;;;;1.80;0.73;;;;;;;-148.58;100.00;55229.56;5014313;28;20044;-57
2021/05/29 08:54:23;;;;;;;1.63;0.75;;;;;;;-148.58;100.00;55229.56;5014426;28;20022;-57
2021/05/29 08:56:49;;;;;;;1.02;0.40;;;;;;;-148.58;100.00;55229.56;5005462;28;20141;-57
2021/05/29 08:59:14;;;;;;;1.77;0.50;;;;;;;-148.58;100.00;55229.56;4994759;28;20117;-57
2021/05/29 09:01:40;;;;;;;0.57;0.20;;;;;;;-148.58;100.00;55229.56;4993335;28;20026;-57
2021/05/29 09:04:07;;;;;;;2.03;0.63;;;;;;;-148.58;100.00;55229.56;4994566;28;20030;-57
2021/05/29 09:06:33;;;;;;;1.48;0.60;;;;;;;-148.58;100.00;55229.56;4994422;28;20540;-57
2021/05/29 09:09:01;;;;;;;2.20;0.40;;;;;;;-148.58;100.00;55229.56;4994455;28;20066;-57
2021/05/29 09:11:52;;;;;;;2.25;0.70;;;;;;;-148.58;100.00;55229.56;4994418;28;20672;-57
2021/05/29 09:14:20;;;;;;;1.45;0.43;;;;;;;-148.58;100.00;55229.56;4994475;28;20053;-57
2021/05/29 09:17:07;;;;;;;1.42;0.70;;;;;;;-148.58;100.00;55229.56;4994357;28;20023;-57
2021/05/29 09:19:56;;;;;;;0.82;0.55;;;;;;;-148.58;100.00;55229.56;4992898;28;20398;-57
2021/05/29 09:22:31;;;;;;;1.23;0.70;;;;;;;-148.58;100.00;55229.56;4993941;28;20512;-57
2021/05/29 09:25:03;;;;;;;1.50;0.50;;;;;;;-148.58;100.00;55229.56;4994066;28;20034;-57
2021/05/29 09:27:31;;;;;;;1.50;0.73;;;;;;;-148.58;100.00;55229.56;5007192;28;20400;-57
2021/05/29 09:29:56;;;;;;;2.95;1.35;;;;;;;-148.58;100.00;55229.56;5013682;28;20025;-57
2021/05/29 09:32:22;;;;;;;0.85;0.40;;;;;;;-148.58;100.00;55229.56;5013617;28;20018;-57
2021/05/29 09:34:52;;;;;;;1.60;0.50;;;;;;;-148.58;100.00;55229.56;5013305;28;20033;-57
2021/05/29 09:37:23;;;;;;;0.68;0.55;;;;;;;-148.58;100.00;55229.56;5013634;28;20096;-57
2021/05/29 09:39:52;;;;;;;1.35;0.40;;;;;;;-148.58;100.00;55229.56;5000324;28;20034;-57
2021/05/29 09:42:18;;;;;;;0.90;0.40;;;;;;;-148.58;100.00;55229.56;4993887;28;20026;-58
2021/05/29 09:44:45;;;;;;;1.08;0.50;;;;;;;-148.58;100.00;55229.56;4993590;28;20030;-57
2021/05/29 09:47:15;;;;;;;2.88;0.70;;;;;;;-148.58;100.00;55229.56;4993987;28;20022;-57
2021/05/29 09:49:47;;;;;;;1.63;0.63;;;;;;;-148.58;100.00;55229.56;4993637;28;20022;-57
2021/05/29 09:52:36;;;;;;;0.80;0.50;;;;;;;-148.58;100.00;55229.56;4993788;28;20037;-57
2021/05/29 09:55:05;;;;;;;1.60;0.52;;;;;;;-148.58;100.00;55229.56;4993752;28;20378;-57
2021/05/29 09:57:47;;;;;;;0.88;0.52;;;;;;;-148.58;100.00;55229.56;5006660;28;20034;-58
2021/05/29 10:00:13;;;;;;;1.33;0.47;;;;;;;-148.58;100.00;55229.56;5013232;28;20466;-57
2021/05/29 10:02:39;;;;;;;0.75;0.35;;;;;;;-148.58;100.00;55229.56;5012888;28;20037;-57
2021/05/29 10:05:28;;;;;;;2.35;0.82;;;;;;;-148.58;100.00;55229.56;5013175;28;20407;-57
2021/05/29 10:07:53;;;;;;;0.93;0.60;;;;;;;-148.58;100.00;55229.56;5013110;28;20030;-57
2021/05/29 10:10:19;;;;;;;1.15;0.40;;;;;;;-148.58;100.00;55229.56;5013109;28;20386;-57
2021/05/29 10:12:44;;;;;;;2.38;0.63;;;;;;;-148.58;100.00;55229.56;5012520;28;20398;-57
2021/05/29 10:15:12;;;;;;;0.60;0.30;;;;;;;-148.58;100.00;55229.56;5013033;28;20026;-57
2021/05/29 10:17:39;;;;;;;1.05;0.40;;;;;;;-148.58;100.00;55229.56;5012783;28;20486;-57
2021/05/29 10:20:06;;;;;;;0.90;0.40;;;;;;;-148.58;100.00;55229.56;5013027;28;20042;-57
2021/05/29 10:22:32;;;;;;;2.00;0.55;;;;;;;-148.58;100.00;55229.56;5012488;28;20037;-57
2021/05/29 10:24:59;;;;;;;1.60;0.40;;;;;;;-148.58;100.00;55229.56;5013103;28;20050;-57
2021/05/29 10:27:29;;;;;;;0.82;0.52;;;;;;;-148.58;100.00;55229.56;5000291;28;20073;-57
2021/05/29 10:29:57;;;;;;;0.80;0.32;;;;;;;-148.58;100.00;55229.56;4993256;28;20366;-57
2021/05/29 10:32:22;;;;;;;0.82;0.30;;;;;;;-148.58;100.00;55229.56;4993273;28;20458;-57
2021/05/29 10:35:05;;;;;;;2.28;0.68;;;;;;;-148.58;100.00;55229.56;4992965;28;20081;-57
2021/05/29 10:37:39;;;;;;;0.95;0.50;;;;;;;-148.58;100.00;55229.56;4993386;28;20370;-57
2021/05/29 10:40:25;;;;;;;0.85;0.40;;;;;;;-148.58;100.00;55229.56;4993153;28;20084;-57
2021/05/29 10:43:11;;;;;;;2.17;0.65;;;;;;;-148.58;100.00;55229.56;4992916;28;20042;-57
2021/05/29 10:45:57;;;;;;;1.48;0.30;;;;;;;-148.58;100.00;55229.56;4992970;28;20465;-57
2021/05/29 10:48:29;;;;;;;1.95;0.60;;;;;;;-148.58;100.00;55229.56;4993318;28;20602;-57
2021/05/29 10:51:12;;;;;;;1.02;0.43;;;;;;;-148.58;100.00;55229.56;5001099;28;20149;-57
2021/05/29 10:53:57;;;;;;;0.55;0.38;;;;;;;-148.58;100.00;55229.56;5027696;28;20029;-57
2021/05/29 10:56:24;;;;;;;0.45;0.43;;;;;;;-148.58;100.00;55229.56;5012027;28;20033;-57
2021/05/29 10:59:18;;;;;;;0.75;0.55;;;;;;;-148.58;100.00;55229.56;5012428;28;20109;-57
2021/05/29 11:01:48;;;;;;;1.15;0.30;;;;;;;-148.58;100.00;55229.56;5012316;28;20497;-57
2021/05/29 11:06:44;;;;;;;1.45;0.70;;;;;;;-148.58;100.00;55229.56;5012333;28;20029;-57
2021/05/29 11:09:11;;;;;;;0.52;0.40;;;;;;;-148.58;100.00;55229.56;5012670;28;20028;-57
2021/05/29 11:11:36;;;;;;;1.58;0.40;;;;;;;-148.58;100.00;55229.56;5012608;28;20018;-57
2021/05/29 11:14:25;;;;;;;0.95;0.68;;;;;;;-148.58;100.00;55229.56;5012508;28;20026;-57
2021/05/29 11:16:53;;;;;;;0.50;0.30;;;;;;;-148.58;100.00;55229.56;4970722;28;20034;-57
2021/05/29 11:19:33;;;;;;;0.60;0.40;;;;;;;-148.58;100.00;55229.56;4971224;28;20039;-57
2021/05/29 11:22:17;;;;;;;1.05;0.30;;;;;;;-148.58;100.00;55229.56;4970814;28;20031;-57